Main page
METAR-TAF:

METAR-TAF

Airports :

Hévíz–Balaton Airport

Hévíz, Hungary

latitude: 46-41-11N, longitude: 017-09-33E, elevation: 124 m

Current weather observation

The report was made 4 hours and 8 minutes ago, at 19:45 UTC
Calm wind
Temperature 21°C
Humidity 83%
Pressure 1013 hPa
Visibility 10 km or more
no clouds below 1500 m and no cumulonimbus

METAR: LHSM 201945Z 00000KT CAVOK 21/18 Q1013

Time: 01:53 (23:53 UTC)

Forecast

The report was made 12 hours and 38 minutes ago, at 11:15 UTC
Forecast valid from 20 at 12 UTC to 20 at 21 UTC
Wind 6 kt from the West/Northwest
Visibility 10 km or more
no clouds below 1500 m and no cumulonimbus
Becoming
from 20 at 14 UTC to 20 at 17 UTC
Wind 3 kt from variable directions

TAF: LHSM 201115Z 2012/2021 30006KT CAVOK BECMG 2014/2017 VRB03KT

Weather observations and forecasts of more than 4000 airports (METAR and TAF reports).

The available stations are represented by yellow and red dots on the map.

Hover mouse over dot to see the name of the station.

Then click to see weather observations and forecasts.

To change the map : click on the green buttons with a black cross to zoom in, on the green button with a dash to zoom out, or on the green arrows for adjacent maps.


METAR-TAF: